sensor_id;sensor_type;location;lat;lon;timestamp;P1;P2;P0
55043;PMS5003;54902;50.420;18.854;2023-04-25T00:00:22;18;18;11
55043;PMS5003;54902;50.420;18.854;2023-04-25T00:00:53;18;18;11
55043;PMS5003;54902;50.420;18.854;2023-04-25T00:01:24;14;14;9
55043;PMS5003;54902;50.420;18.854;2023-04-25T00:01:55;14;14;9
55043;PMS5003;54902;50.420;18.854;2023-04-25T00:02:27;14;14;9
55043;PMS5003;54902;50.420;18.854;2023-04-25T00:02:58;14;14;9
55043;PMS5003;54902;50.420;18.854;2023-04-25T00:03:33;14;14;9
55043;PMS5003;54902;50.420;18.854;2023-04-25T00:04:05;14;14;9
55043;PMS5003;54902;50.420;18.854;2023-04-25T00:04:36;10;10;7
55043;PMS5003;54902;50.420;18.854;2023-04-25T00:05:09;10;10;7
55043;PMS5003;54902;50.420;18.854;2023-04-25T00:05:41;10;10;7
55043;PMS5003;54902;50.420;18.854;2023-04-25T00:06:12;10;10;7
55043;PMS5003;54902;50.420;18.854;2023-04-25T00:06:42;10;10;7
55043;PMS5003;54902;50.420;18.854;2023-04-25T00:07:13;10;10;7
55043;PMS5003;54902;50.420;18.854;2023-04-25T00:07:45;10;10;7
55043;PMS5003;54902;50.420;18.854;2023-04-25T00:08:16;10;10;7
55043;PMS5003;54902;50.420;18.854;2023-04-25T00:08:47;10;10;7
55043;PMS5003;54902;50.420;18.854;2023-04-25T00:09:19;12;12;9
55043;PMS5003;54902;50.420;18.854;2023-04-25T00:09:50;6;6;5
55043;PMS5003;54902;50.420;18.854;2023-04-25T00:10:21;6;6;5
55043;PMS5003;54902;50.420;18.854;2023-04-25T00:10:52;6;6;5
55043;PMS5003;54902;50.420;18.854;2023-04-25T00:11:23;6;6;5
55043;PMS5003;54902;50.420;18.854;2023-04-25T00:11:54;6;6;5
55043;PMS5003;54902;50.420;18.854;2023-04-25T00:12:25;6;6;5
55043;PMS5003;54902;50.420;18.854;2023-04-25T00:12:59;6;6;5
55043;PMS5003;54902;50.420;18.854;2023-04-25T00:13:32;6;6;5
55043;PMS5003;54902;50.420;18.854;2023-04-25T00:14:04;6;6;5
55043;PMS5003;54902;50.420;18.854;2023-04-25T00:14:36;6;6;5
55043;PMS5003;54902;50.420;18.854;2023-04-25T00:15:08;9;9;6
55043;PMS5003;54902;50.420;18.854;2023-04-25T00:15:40;9;9;6
55043;PMS5003;54902;50.420;18.854;2023-04-25T00:16:11;9;9;6
55043;PMS5003;54902;50.420;18.854;2023-04-25T00:16:45;9;9;6
55043;PMS5003;54902;50.420;18.854;2023-04-25T00:17:16;9;9;6
55043;PMS5003;54902;50.420;18.854;2023-04-25T00:17:47;9;9;6
55043;PMS5003;54902;50.420;18.854;2023-04-25T00:18:18;9;9;6
55043;PMS5003;54902;50.420;18.854;2023-04-25T00:18:50;9;9;6
55043;PMS5003;54902;50.420;18.854;2023-04-25T00:19:24;9;9;6
55043;PMS5003;54902;50.420;18.854;2023-04-25T00:19:56;9;9;6
55043;PMS5003;54902;50.420;18.854;2023-04-25T00:20:28;13;13;10
55043;PMS5003;54902;50.420;18.854;2023-04-25T00:21:01;13;13;10
55043;PMS5003;54902;50.420;18.854;2023-04-25T00:21:33;13;13;10
55043;PMS5003;54902;50.420;18.854;2023-04-25T00:22:04;13;13;10
55043;PMS5003;54902;50.420;18.854;2023-04-25T00:22:36;13;13;10
55043;PMS5003;54902;50.420;18.854;2023-04-25T00:23:10;13;13;10
55043;PMS5003;54902;50.420;18.854;2023-04-25T00:23:40;13;13;10
55043;PMS5003;54902;50.420;18.854;2023-04-25T00:24:12;13;13;10
55043;PMS5003;54902;50.420;18.854;2023-04-25T00:24:43;13;13;10
55043;PMS5003;54902;50.420;18.854;2023-04-25T00:25:14;13;13;10
55043;PMS5003;54902;50.420;18.854;2023-04-25T00:25:45;13;13;10
55043;PMS5003;54902;50.420;18.854;2023-04-25T00:26:17;13;13;10
55043;PMS5003;54902;50.420;18.854;2023-04-25T00:26:48;13;13;10
55043;PMS5003;54902;50.420;18.854;2023-04-25T00:27:19;13;13;10
55043;PMS5003;54902;50.420;18.854;2023-04-25T00:27:50;13;13;10
55043;PMS5003;54902;50.420;18.854;2023-04-25T00:28:21;13;13;10
55043;PMS5003;54902;50.420;18.854;2023-04-25T00:28:51;13;13;10
55043;PMS5003;54902;50.420;18.854;2023-04-25T00:29:22;13;13;10
55043;PMS5003;54902;50.420;18.854;2023-04-25T00:29:53;11;11;9
55043;PMS5003;54902;50.420;18.854;2023-04-25T00:30:27;11;11;9
55043;PMS5003;54902;50.420;18.854;2023-04-25T00:30:58;9;9;7
55043;PMS5003;54902;50.420;18.854;2023-04-25T00:31:29;9;9;7
55043;PMS5003;54902;50.420;18.854;2023-04-25T00:32:01;9;9;7
55043;PMS5003;54902;50.420;18.854;2023-04-25T00:32:32;9;9;7
55043;PMS5003;54902;50.420;18.854;2023-04-25T00:33:03;9;9;7
55043;PMS5003;54902;50.420;18.854;2023-04-25T00:33:34;9;9;7
55043;PMS5003;54902;50.420;18.854;2023-04-25T00:34:06;9;9;7
55043;PMS5003;54902;50.420;18.854;2023-04-25T00:34:38;9;9;7
55043;PMS5003;54902;50.420;18.854;2023-04-25T00:35:10;9;9;7
55043;PMS5003;54902;50.420;18.854;2023-04-25T00:35:41;9;9;7
55043;PMS5003;54902;50.420;18.854;2023-04-25T00:36:12;16;16;10
55043;PMS5003;54902;50.420;18.854;2023-04-25T00:36:43;16;16;10
55043;PMS5003;54902;50.420;18.854;2023-04-25T00:37:15;16;16;10
55043;PMS5003;54902;50.420;18.854;2023-04-25T00:37:46;16;16;10
55043;PMS5003;54902;50.420;18.854;2023-04-25T00:38:17;16;16;10
55043;PMS5003;54902;50.420;18.854;2023-04-25T00:38:48;16;16;10
55043;PMS5003;54902;50.420;18.854;2023-04-25T00:39:19;16;16;10
55043;PMS5003;54902;50.420;18.854;2023-04-25T00:39:50;16;16;10
55043;PMS5003;54902;50.420;18.854;2023-04-25T00:40:26;16;16;10
55043;PMS5003;54902;50.420;18.854;2023-04-25T00:40:58;16;16;10
55043;PMS5003;54902;50.420;18.854;2023-04-25T00:41:29;16;16;10
55043;PMS5003;54902;50.420;18.854;2023-04-25T00:42:00;16;16;10
55043;PMS5003;54902;50.420;18.854;2023-04-25T00:42:33;16;16;10
55043;PMS5003;54902;50.420;18.854;2023-04-25T00:43:07;16;16;10
55043;PMS5003;54902;50.420;18.854;2023-04-25T00:43:38;16;16;10
55043;PMS5003;54902;50.420;18.854;2023-04-25T00:44:11;16;16;10
55043;PMS5003;54902;50.420;18.854;2023-04-25T00:44:42;16;16;10
55043;PMS5003;54902;50.420;18.854;2023-04-25T00:45:15;16;16;10
55043;PMS5003;54902;50.420;18.854;2023-04-25T00:45:48;16;16;10
55043;PMS5003;54902;50.420;18.854;2023-04-25T00:46:22;16;16;10
55043;PMS5003;54902;50.420;18.854;2023-04-25T00:46:53;16;16;10
55043;PMS5003;54902;50.420;18.854;2023-04-25T00:47:25;16;16;10
55043;PMS5003;54902;50.420;18.854;2023-04-25T00:47:56;16;16;10
55043;PMS5003;54902;50.420;18.854;2023-04-25T00:48:28;16;16;10
55043;PMS5003;54902;50.420;18.854;2023-04-25T00:48:59;16;16;10
55043;PMS5003;54902;50.420;18.854;2023-04-25T00:49:29;16;16;10
55043;PMS5003;54902;50.420;18.854;2023-04-25T00:50:00;16;16;10
55043;PMS5003;54902;50.420;18.854;2023-04-25T00:50:35;16;16;10
55043;PMS5003;54902;50.420;18.854;2023-04-25T00:51:07;14;14;9
55043;PMS5003;54902;50.420;18.854;2023-04-25T00:51:44;14;14;9
55043;PMS5003;54902;50.420;18.854;2023-04-25T00:52:15;16;16;11
55043;PMS5003;54902;50.420;18.854;2023-04-25T00:52:46;16;16;11
55043;PMS5003;54902;50.420;18.854;2023-04-25T00:53:17;16;16;11
55043;PMS5003;54902;50.420;18.854;2023-04-25T00:53:49;16;16;11
55043;PMS5003;54902;50.420;18.854;2023-04-25T00:54:21;16;16;11
55043;PMS5003;54902;50.420;18.854;2023-04-25T00:54:53;16;16;11
55043;PMS5003;54902;50.420;18.854;2023-04-25T00:55:24;16;16;11
55043;PMS5003;54902;50.420;18.854;2023-04-25T00:55:55;18;18;12
55043;PMS5003;54902;50.420;18.854;2023-04-25T00:56:27;18;18;12
55043;PMS5003;54902;50.420;18.854;2023-04-25T00:56:58;18;18;12
55043;PMS5003;54902;50.420;18.854;2023-04-25T00:57:31;16;16;11
55043;PMS5003;54902;50.420;18.854;2023-04-25T00:58:02;16;16;11
55043;PMS5003;54902;50.420;18.854;2023-04-25T00:58:34;16;16;11
55043;PMS5003;54902;50.420;18.854;2023-04-25T00:59:05;16;16;11
55043;PMS5003;54902;50.420;18.854;2023-04-25T00:59:37;16;16;11
55043;PMS5003;54902;50.420;18.854;2023-04-25T01:00:09;16;16;11
55043;PMS5003;54902;50.420;18.854;2023-04-25T01:00:41;16;16;11
55043;PMS5003;54902;50.420;18.854;2023-04-25T01:01:13;16;16;11
55043;PMS5003;54902;50.420;18.854;2023-04-25T01:01:44;16;16;11
55043;PMS5003;54902;50.420;18.854;2023-04-25T01:02:15;16;16;11
55043;PMS5003;54902;50.420;18.854;2023-04-25T01:02:47;21;21;15
55043;PMS5003;54902;50.420;18.854;2023-04-25T01:03:18;21;21;15
55043;PMS5003;54902;50.420;18.854;2023-04-25T01:03:54;21;21;15
55043;PMS5003;54902;50.420;18.854;2023-04-25T01:04:26;21;21;15
55043;PMS5003;54902;50.420;18.854;2023-04-25T01:04:59;21;21;15
55043;PMS5003;54902;50.420;18.854;2023-04-25T01:05:31;21;21;15
55043;PMS5003;54902;50.420;18.854;2023-04-25T01:06:02;21;21;15
55043;PMS5003;54902;50.420;18.854;2023-04-25T01:06:33;21;21;15
55043;PMS5003;54902;50.420;18.854;2023-04-25T01:07:04;21;21;15
55043;PMS5003;54902;50.420;18.854;2023-04-25T01:07:35;19;19;14
55043;PMS5003;54902;50.420;18.854;2023-04-25T01:08:07;15;15;11
55043;PMS5003;54902;50.420;18.854;2023-04-25T01:08:38;15;15;11
55043;PMS5003;54902;50.420;18.854;2023-04-25T01:09:10;15;15;11
55043;PMS5003;54902;50.420;18.854;2023-04-25T01:09:42;15;15;11
55043;PMS5003;54902;50.420;18.854;2023-04-25T01:10:13;15;15;11
55043;PMS5003;54902;50.420;18.854;2023-04-25T01:10:44;15;15;11
55043;PMS5003;54902;50.420;18.854;2023-04-25T01:11:15;15;15;11
55043;PMS5003;54902;50.420;18.854;2023-04-25T01:11:46;15;15;11
55043;PMS5003;54902;50.420;18.854;2023-04-25T01:12:16;15;15;11
55043;PMS5003;54902;50.420;18.854;2023-04-25T01:12:47;15;15;11
55043;PMS5003;54902;50.420;18.854;2023-04-25T01:13:18;19;19;15
55043;PMS5003;54902;50.420;18.854;2023-04-25T01:13:50;11;11;8
55043;PMS5003;54902;50.420;18.854;2023-04-25T01:14:21;11;11;8
55043;PMS5003;54902;50.420;18.854;2023-04-25T01:14:53;11;11;8
55043;PMS5003;54902;50.420;18.854;2023-04-25T01:15:25;11;11;8
55043;PMS5003;54902;50.420;18.854;2023-04-25T01:15:56;11;11;8
55043;PMS5003;54902;50.420;18.854;2023-04-25T01:16:27;11;11;8
55043;PMS5003;54902;50.420;18.854;2023-04-25T01:16:58;11;11;8
55043;PMS5003;54902;50.420;18.854;2023-04-25T01:17:29;11;11;8
55043;PMS5003;54902;50.420;18.854;2023-04-25T01:18:02;11;11;8
55043;PMS5003;54902;50.420;18.854;2023-04-25T01:18:34;17;17;12
55043;PMS5003;54902;50.420;18.854;2023-04-25T01:19:08;17;17;12
55043;PMS5003;54902;50.420;18.854;2023-04-25T01:19:44;17;17;12
55043;PMS5003;54902;50.420;18.854;2023-04-25T01:20:19;17;17;12
55043;PMS5003;54902;50.420;18.854;2023-04-25T01:20:53;17;17;12
55043;PMS5003;54902;50.420;18.854;2023-04-25T01:21:25;13;13;9
55043;PMS5003;54902;50.420;18.854;2023-04-25T01:21:59;13;13;9
55043;PMS5003;54902;50.420;18.854;2023-04-25T01:22:31;13;13;9
55043;PMS5003;54902;50.420;18.854;2023-04-25T01:23:03;13;13;9
55043;PMS5003;54902;50.420;18.854;2023-04-25T01:23:34;13;13;9
55043;PMS5003;54902;50.420;18.854;2023-04-25T01:24:06;13;13;10
55043;PMS5003;54902;50.420;18.854;2023-04-25T01:24:38;13;13;10
55043;PMS5003;54902;50.420;18.854;2023-04-25T01:25:09;13;13;10
55043;PMS5003;54902;50.420;18.854;2023-04-25T01:25:40;13;13;10
55043;PMS5003;54902;50.420;18.854;2023-04-25T01:26:12;13;13;10
55043;PMS5003;54902;50.420;18.854;2023-04-25T01:26:43;13;13;10
55043;PMS5003;54902;50.420;18.854;2023-04-25T01:27:20;13;13;10
55043;PMS5003;54902;50.420;18.854;2023-04-25T01:27:53;13;13;10
55043;PMS5003;54902;50.420;18.854;2023-04-25T01:28:24;13;13;10
55043;PMS5003;54902;50.420;18.854;2023-04-25T01:28:55;13;13;10
55043;PMS5003;54902;50.420;18.854;2023-04-25T01:29:27;15;15;13
55043;PMS5003;54902;50.420;18.854;2023-04-25T01:29:59;15;15;13
55043;PMS5003;54902;50.420;18.854;2023-04-25T01:30:30;15;15;13
55043;PMS5003;54902;50.420;18.854;2023-04-25T01:31:01;15;15;13
55043;PMS5003;54902;50.420;18.854;2023-04-25T01:31:33;15;15;13
55043;PMS5003;54902;50.420;18.854;2023-04-25T01:32:05;15;15;13
55043;PMS5003;54902;50.420;18.854;2023-04-25T01:32:37;15;15;13
55043;PMS5003;54902;50.420;18.854;2023-04-25T01:33:08;15;15;13
55043;PMS5003;54902;50.420;18.854;2023-04-25T01:33:40;15;15;13
55043;PMS5003;54902;50.420;18.854;2023-04-25T01:34:12;15;15;13
55043;PMS5003;54902;50.420;18.854;2023-04-25T01:34:43;15;15;13
55043;PMS5003;54902;50.420;18.854;2023-04-25T01:35:14;15;15;13
55043;PMS5003;54902;50.420;18.854;2023-04-25T01:35:45;15;15;13
55043;PMS5003;54902;50.420;18.854;2023-04-25T01:36:17;15;15;13
55043;PMS5003;54902;50.420;18.854;2023-04-25T01:36:49;15;15;13
55043;PMS5003;54902;50.420;18.854;2023-04-25T01:37:20;15;15;13
55043;PMS5003;54902;50.420;18.854;2023-04-25T01:37:52;15;15;13
55043;PMS5003;54902;50.420;18.854;2023-04-25T01:38:23;15;15;13
55043;PMS5003;54902;50.420;18.854;2023-04-25T01:38:55;15;15;13
55043;PMS5003;54902;50.420;18.854;2023-04-25T01:39:27;15;15;13
55043;PMS5003;54902;50.420;18.854;2023-04-25T01:39:58;15;15;13
55043;PMS5003;54902;50.420;18.854;2023-04-25T01:40:29;15;15;13
55043;PMS5003;54902;50.420;18.854;2023-04-25T01:41:02;15;15;13
55043;PMS5003;54902;50.420;18.854;2023-04-25T01:41:33;15;15;13
55043;PMS5003;54902;50.420;18.854;2023-04-25T01:42:07;15;15;13
55043;PMS5003;54902;50.420;18.854;2023-04-25T01:42:39;15;15;13
55043;PMS5003;54902;50.420;18.854;2023-04-25T01:43:12;15;15;13
55043;PMS5003;54902;50.420;18.854;2023-04-25T01:43:44;15;15;13
55043;PMS5003;54902;50.420;18.854;2023-04-25T01:44:15;15;15;13
55043;PMS5003;54902;50.420;18.854;2023-04-25T01:44:46;15;15;13
55043;PMS5003;54902;50.420;18.854;2023-04-25T01:45:17;15;15;13
55043;PMS5003;54902;50.420;18.854;2023-04-25T01:45:49;15;15;13
55043;PMS5003;54902;50.420;18.854;2023-04-25T01:46:20;15;15;13
55043;PMS5003;54902;50.420;18.854;2023-04-25T01:46:51;15;15;13
55043;PMS5003;54902;50.420;18.854;2023-04-25T01:47:22;11;11;10
55043;PMS5003;54902;50.420;18.854;2023-04-25T01:47:53;11;11;10
55043;PMS5003;54902;50.420;18.854;2023-04-25T01:48:25;11;11;10
55043;PMS5003;54902;50.420;18.854;2023-04-25T01:48:56;11;11;10
55043;PMS5003;54902;50.420;18.854;2023-04-25T01:49:27;11;11;10
55043;PMS5003;54902;50.420;18.854;2023-04-25T01:49:58;11;11;10
55043;PMS5003;54902;50.420;18.854;2023-04-25T01:50:29;17;17;11
55043;PMS5003;54902;50.420;18.854;2023-04-25T01:51:00;17;17;11
55043;PMS5003;54902;50.420;18.854;2023-04-25T01:51:31;17;17;11
55043;PMS5003;54902;50.420;18.854;2023-04-25T01:52:02;17;17;11
55043;PMS5003;54902;50.420;18.854;2023-04-25T01:52:34;17;17;11
55043;PMS5003;54902;50.420;18.854;2023-04-25T01:53:05;17;17;11
55043;PMS5003;54902;50.420;18.854;2023-04-25T01:53:36;17;17;11
55043;PMS5003;54902;50.420;18.854;2023-04-25T01:54:08;17;17;11
55043;PMS5003;54902;50.420;18.854;2023-04-25T01:54:41;17;17;11
55043;PMS5003;54902;50.420;18.854;2023-04-25T01:55:15;17;17;11
55043;PMS5003;54902;50.420;18.854;2023-04-25T01:55:45;8;8;8
55043;PMS5003;54902;50.420;18.854;2023-04-25T01:56:17;8;8;8
55043;PMS5003;54902;50.420;18.854;2023-04-25T01:56:52;8;8;8
55043;PMS5003;54902;50.420;18.854;2023-04-25T01:57:23;8;8;8
55043;PMS5003;54902;50.420;18.854;2023-04-25T01:57:54;8;8;8
55043;PMS5003;54902;50.420;18.854;2023-04-25T01:58:25;8;8;8
55043;PMS5003;54902;50.420;18.854;2023-04-25T01:58:55;8;8;8
55043;PMS5003;54902;50.420;18.854;2023-04-25T01:59:27;8;8;8
55043;PMS5003;54902;50.420;18.854;2023-04-25T01:59:59;8;8;8
55043;PMS5003;54902;50.420;18.854;2023-04-25T02:00:33;8;8;8
55043;PMS5003;54902;50.420;18.854;2023-04-25T02:01:04;13;13;12
55043;PMS5003;54902;50.420;18.854;2023-04-25T02:01:35;13;13;12
55043;PMS5003;54902;50.420;18.854;2023-04-25T02:02:06;13;13;12
55043;PMS5003;54902;50.420;18.854;2023-04-25T02:02:37;13;13;12
55043;PMS5003;54902;50.420;18.854;2023-04-25T02:03:07;13;13;12
55043;PMS5003;54902;50.420;18.854;2023-04-25T02:03:38;13;13;12
55043;PMS5003;54902;50.420;18.854;2023-04-25T02:04:10;13;13;12
55043;PMS5003;54902;50.420;18.854;2023-04-25T02:04:41;13;13;12
55043;PMS5003;54902;50.420;18.854;2023-04-25T02:05:11;13;13;12
55043;PMS5003;54902;50.420;18.854;2023-04-25T02:05:42;13;13;12
55043;PMS5003;54902;50.420;18.854;2023-04-25T02:06:13;8;8;7
55043;PMS5003;54902;50.420;18.854;2023-04-25T02:06:44;8;8;7
55043;PMS5003;54902;50.420;18.854;2023-04-25T02:07:16;8;8;7
55043;PMS5003;54902;50.420;18.854;2023-04-25T02:07:47;8;8;7
55043;PMS5003;54902;50.420;18.854;2023-04-25T02:08:18;8;8;7
55043;PMS5003;54902;50.420;18.854;2023-04-25T02:08:50;8;8;7
55043;PMS5003;54902;50.420;18.854;2023-04-25T02:09:21;8;8;7
55043;PMS5003;54902;50.420;18.854;2023-04-25T02:09:52;8;8;7
55043;PMS5003;54902;50.420;18.854;2023-04-25T02:10:23;8;8;7
55043;PMS5003;54902;50.420;18.854;2023-04-25T02:10:54;8;8;7
55043;PMS5003;54902;50.420;18.854;2023-04-25T02:11:25;10;10;9
55043;PMS5003;54902;50.420;18.854;2023-04-25T02:11:55;10;10;9
55043;PMS5003;54902;50.420;18.854;2023-04-25T02:12:27;10;10;9
55043;PMS5003;54902;50.420;18.854;2023-04-25T02:12:59;10;10;9
55043;PMS5003;54902;50.420;18.854;2023-04-25T02:13:30;10;10;9
55043;PMS5003;54902;50.420;18.854;2023-04-25T02:14:00;10;10;9
55043;PMS5003;54902;50.420;18.854;2023-04-25T02:14:31;10;10;9
55043;PMS5003;54902;50.420;18.854;2023-04-25T02:15:02;10;10;9
55043;PMS5003;54902;50.420;18.854;2023-04-25T02:15:34;10;10;9
55043;PMS5003;54902;50.420;18.854;2023-04-25T02:16:05;10;10;9
55043;PMS5003;54902;50.420;18.854;2023-04-25T02:16:36;10;10;9
55043;PMS5003;54902;50.420;18.854;2023-04-25T02:17:08;10;10;9
55043;PMS5003;54902;50.420;18.854;2023-04-25T02:17:40;10;10;9
55043;PMS5003;54902;50.420;18.854;2023-04-25T02:18:10;10;10;9
55043;PMS5003;54902;50.420;18.854;2023-04-25T02:18:41;10;10;9
55043;PMS5003;54902;50.420;18.854;2023-04-25T02:19:13;10;10;9
55043;PMS5003;54902;50.420;18.854;2023-04-25T02:19:44;9;8;6
55043;PMS5003;54902;50.420;18.854;2023-04-25T02:20:15;9;8;6
55043;PMS5003;54902;50.420;18.854;2023-04-25T02:20:50;9;8;6
55043;PMS5003;54902;50.420;18.854;2023-04-25T02:21:21;9;8;6
55043;PMS5003;54902;50.420;18.854;2023-04-25T02:21:52;7;7;5
55043;PMS5003;54902;50.420;18.854;2023-04-25T02:22:23;7;7;5
55043;PMS5003;54902;50.420;18.854;2023-04-25T02:22:54;7;7;5
55043;PMS5003;54902;50.420;18.854;2023-04-25T02:23:25;7;7;5
55043;PMS5003;54902;50.420;18.854;2023-04-25T02:23:56;7;7;5
55043;PMS5003;54902;50.420;18.854;2023-04-25T02:24:27;7;7;5
55043;PMS5003;54902;50.420;18.854;2023-04-25T02:24:58;7;7;5
55043;PMS5003;54902;50.420;18.854;2023-04-25T02:25:29;7;7;5
55043;PMS5003;54902;50.420;18.854;2023-04-25T02:26:00;7;7;5
55043;PMS5003;54902;50.420;18.854;2023-04-25T02:26:31;7;7;5
55043;PMS5003;54902;50.420;18.854;2023-04-25T02:27:02;9;9;7
55043;PMS5003;54902;50.420;18.854;2023-04-25T02:27:33;9;9;7
55043;PMS5003;54902;50.420;18.854;2023-04-25T02:28:04;9;9;7
55043;PMS5003;54902;50.420;18.854;2023-04-25T02:28:35;9;9;7
55043;PMS5003;54902;50.420;18.854;2023-04-25T02:29:06;9;9;7
55043;PMS5003;54902;50.420;18.854;2023-04-25T02:29:37;9;9;7
55043;PMS5003;54902;50.420;18.854;2023-04-25T02:30:09;9;9;7
55043;PMS5003;54902;50.420;18.854;2023-04-25T02:30:40;9;9;7
55043;PMS5003;54902;50.420;18.854;2023-04-25T02:31:11;9;9;7
55043;PMS5003;54902;50.420;18.854;2023-04-25T02:31:42;9;9;7
55043;PMS5003;54902;50.420;18.854;2023-04-25T02:32:13;11;11;8
55043;PMS5003;54902;50.420;18.854;2023-04-25T02:32:44;11;11;8
55043;PMS5003;54902;50.420;18.854;2023-04-25T02:33:15;11;11;8
55043;PMS5003;54902;50.420;18.854;2023-04-25T02:33:47;11;11;8
55043;PMS5003;54902;50.420;18.854;2023-04-25T02:34:18;11;11;8
55043;PMS5003;54902;50.420;18.854;2023-04-25T02:34:50;11;11;8
55043;PMS5003;54902;50.420;18.854;2023-04-25T02:35:21;11;11;8
55043;PMS5003;54902;50.420;18.854;2023-04-25T02:35:52;11;11;8
55043;PMS5003;54902;50.420;18.854;2023-04-25T02:36:22;11;11;8
55043;PMS5003;54902;50.420;18.854;2023-04-25T02:36:54;11;11;8
55043;PMS5003;54902;50.420;18.854;2023-04-25T02:37:25;17;17;12
55043;PMS5003;54902;50.420;18.854;2023-04-25T02:37:56;17;17;12
55043;PMS5003;54902;50.420;18.854;2023-04-25T02:38:27;17;17;12
55043;PMS5003;54902;50.420;18.854;2023-04-25T02:38:58;17;17;12
55043;PMS5003;54902;50.420;18.854;2023-04-25T02:39:29;17;17;12
55043;PMS5003;54902;50.420;18.854;2023-04-25T02:39:59;17;17;12
55043;PMS5003;54902;50.420;18.854;2023-04-25T02:40:31;17;17;12
55043;PMS5003;54902;50.420;18.854;2023-04-25T02:41:02;17;17;12
55043;PMS5003;54902;50.420;18.854;2023-04-25T02:41:33;17;17;12
55043;PMS5003;54902;50.420;18.854;2023-04-25T02:42:04;15;15;11
55043;PMS5003;54902;50.420;18.854;2023-04-25T02:42:35;8;8;5
55043;PMS5003;54902;50.420;18.854;2023-04-25T02:43:06;8;8;5
55043;PMS5003;54902;50.420;18.854;2023-04-25T02:43:37;8;8;5
55043;PMS5003;54902;50.420;18.854;2023-04-25T02:44:08;8;8;5
55043;PMS5003;54902;50.420;18.854;2023-04-25T02:44:39;8;8;5
55043;PMS5003;54902;50.420;18.854;2023-04-25T02:45:10;8;8;5
55043;PMS5003;54902;50.420;18.854;2023-04-25T02:45:41;8;8;5
55043;PMS5003;54902;50.420;18.854;2023-04-25T02:46:12;8;8;5
55043;PMS5003;54902;50.420;18.854;2023-04-25T02:46:43;8;8;5
55043;PMS5003;54902;50.420;18.854;2023-04-25T02:47:14;8;8;5
55043;PMS5003;54902;50.420;18.854;2023-04-25T02:47:45;11;11;8
55043;PMS5003;54902;50.420;18.854;2023-04-25T02:48:16;11;11;8
55043;PMS5003;54902;50.420;18.854;2023-04-25T02:48:47;11;11;8
55043;PMS5003;54902;50.420;18.854;2023-04-25T02:49:18;11;11;8
55043;PMS5003;54902;50.420;18.854;2023-04-25T02:49:49;11;11;8
55043;PMS5003;54902;50.420;18.854;2023-04-25T02:50:20;11;11;8
55043;PMS5003;54902;50.420;18.854;2023-04-25T02:50:51;11;11;8
55043;PMS5003;54902;50.420;18.854;2023-04-25T02:51:22;11;11;8
55043;PMS5003;54902;50.420;18.854;2023-04-25T02:51:53;11;11;8
55043;PMS5003;54902;50.420;18.854;2023-04-25T02:52:24;11;11;8
55043;PMS5003;54902;50.420;18.854;2023-04-25T02:52:55;11;11;8
55043;PMS5003;54902;50.420;18.854;2023-04-25T02:53:26;11;11;8
55043;PMS5003;54902;50.420;18.854;2023-04-25T02:53:57;11;11;8
55043;PMS5003;54902;50.420;18.854;2023-04-25T02:54:28;11;11;8
55043;PMS5003;54902;50.420;18.854;2023-04-25T02:54:59;11;11;8
55043;PMS5003;54902;50.420;18.854;2023-04-25T02:55:30;11;11;8
55043;PMS5003;54902;50.420;18.854;2023-04-25T02:56:01;11;11;8
55043;PMS5003;54902;50.420;18.854;2023-04-25T02:56:32;11;11;8
55043;PMS5003;54902;50.420;18.854;2023-04-25T02:57:03;11;11;8
55043;PMS5003;54902;50.420;18.854;2023-04-25T02:57:34;11;11;8
55043;PMS5003;54902;50.420;18.854;2023-04-25T02:58:05;11;11;8
55043;PMS5003;54902;50.420;18.854;2023-04-25T02:58:36;11;11;8
55043;PMS5003;54902;50.420;18.854;2023-04-25T02:59:07;11;11;8
55043;PMS5003;54902;50.420;18.854;2023-04-25T02:59:38;11;11;8
55043;PMS5003;54902;50.420;18.854;2023-04-25T03:00:09;11;11;8
55043;PMS5003;54902;50.420;18.854;2023-04-25T03:00:44;11;11;8
55043;PMS5003;54902;50.420;18.854;2023-04-25T03:01:15;11;11;8
55043;PMS5003;54902;50.420;18.854;2023-04-25T03:01:46;11;11;8
55043;PMS5003;54902;50.420;18.854;2023-04-25T03:02:17;11;11;8
55043;PMS5003;54902;50.420;18.854;2023-04-25T03:02:48;11;11;8
55043;PMS5003;54902;50.420;18.854;2023-04-25T03:03:19;11;11;8
55043;PMS5003;54902;50.420;18.854;2023-04-25T03:03:52;11;11;8
55043;PMS5003;54902;50.420;18.854;2023-04-25T03:04:23;11;11;8
55043;PMS5003;54902;50.420;18.854;2023-04-25T03:04:56;11;11;8
55043;PMS5003;54902;50.420;18.854;2023-04-25T03:05:28;11;11;8
55043;PMS5003;54902;50.420;18.854;2023-04-25T03:05:59;11;11;8
55043;PMS5003;54902;50.420;18.854;2023-04-25T03:06:30;11;11;8
55043;PMS5003;54902;50.420;18.854;2023-04-25T03:07:01;11;11;8
55043;PMS5003;54902;50.420;18.854;2023-04-25T03:07:32;11;11;8
55043;PMS5003;54902;50.420;18.854;2023-04-25T03:08:03;11;11;8
55043;PMS5003;54902;50.420;18.854;2023-04-25T03:08:34;11;11;8
55043;PMS5003;54902;50.420;18.854;2023-04-25T03:09:05;11;11;8
55043;PMS5003;54902;50.420;18.854;2023-04-25T03:09:36;11;11;8
55043;PMS5003;54902;50.420;18.854;2023-04-25T03:10:07;11;11;8
55043;PMS5003;54902;50.420;18.854;2023-04-25T03:10:38;11;11;8
55043;PMS5003;54902;50.420;18.854;2023-04-25T03:11:09;11;11;8
55043;PMS5003;54902;50.420;18.854;2023-04-25T03:11:41;11;11;8
55043;PMS5003;54902;50.420;18.854;2023-04-25T03:12:12;11;11;8
55043;PMS5003;54902;50.420;18.854;2023-04-25T03:12:43;11;11;8
55043;PMS5003;54902;50.420;18.854;2023-04-25T03:13:14;11;11;8
55043;PMS5003;54902;50.420;18.854;2023-04-25T03:13:45;11;11;8
55043;PMS5003;54902;50.420;18.854;2023-04-25T03:14:16;11;11;8
55043;PMS5003;54902;50.420;18.854;2023-04-25T03:14:47;11;11;8
55043;PMS5003;54902;50.420;18.854;2023-04-25T03:15:17;11;11;8
55043;PMS5003;54902;50.420;18.854;2023-04-25T03:15:48;11;11;8
55043;PMS5003;54902;50.420;18.854;2023-04-25T03:16:20;11;11;8
55043;PMS5003;54902;50.420;18.854;2023-04-25T03:16:51;11;11;8
55043;PMS5003;54902;50.420;18.854;2023-04-25T03:17:22;11;11;8
55043;PMS5003;54902;50.420;18.854;2023-04-25T03:17:53;11;11;8
55043;PMS5003;54902;50.420;18.854;2023-04-25T03:18:24;11;11;8
55043;PMS5003;54902;50.420;18.854;2023-04-25T03:18:55;11;11;8
55043;PMS5003;54902;50.420;18.854;2023-04-25T03:19:26;11;11;8
55043;PMS5003;54902;50.420;18.854;2023-04-25T03:19:57;11;11;8
55043;PMS5003;54902;50.420;18.854;2023-04-25T03:20:28;11;11;8
55043;PMS5003;54902;50.420;18.854;2023-04-25T03:20:59;11;11;8
55043;PMS5003;54902;50.420;18.854;2023-04-25T03:21:30;11;11;8
55043;PMS5003;54902;50.420;18.854;2023-04-25T03:22:02;11;11;8
55043;PMS5003;54902;50.420;18.854;2023-04-25T03:22:33;11;11;8